sensor_id;sensor_type;location;lat;lon;timestamp;P1;durP1;ratioP1;P2;durP2;ratioP2
14592;SDS011;7383;52.354;9.756;2024-01-27T01:52:34;7.93;;;2.67;;
14592;SDS011;7383;52.354;9.756;2024-01-27T01:55:05;4.53;;;2.22;;
14592;SDS011;7383;52.354;9.756;2024-01-27T01:57:48;8.48;;;2.60;;
14592;SDS011;7383;52.354;9.756;2024-01-27T02:00:20;3.90;;;2.15;;
14592;SDS011;7383;52.354;9.756;2024-01-27T02:02:48;5.70;;;2.50;;
14592;SDS011;7383;52.354;9.756;2024-01-27T02:05:26;5.68;;;2.58;;
14592;SDS011;7383;52.354;9.756;2024-01-27T02:10:59;5.10;;;2.55;;
14592;SDS011;7383;52.354;9.756;2024-01-27T02:13:30;5.90;;;2.60;;
14592;SDS011;7383;52.354;9.756;2024-01-27T02:16:09;5.43;;;2.35;;
14592;SDS011;7383;52.354;9.756;2024-01-27T02:18:42;7.10;;;2.45;;
14592;SDS011;7383;52.354;9.756;2024-01-27T02:21:13;4.25;;;2.25;;
14592;SDS011;7383;52.354;9.756;2024-01-27T02:23:57;5.90;;;2.55;;
14592;SDS011;7383;52.354;9.756;2024-01-27T02:26:28;5.70;;;2.08;;
14592;SDS011;7383;52.354;9.756;2024-01-27T02:32:27;7.60;;;2.30;;
14592;SDS011;7383;52.354;9.756;2024-01-27T02:37:52;7.38;;;2.03;;
14592;SDS011;7383;52.354;9.756;2024-01-27T02:40:21;4.22;;;2.20;;
14592;SDS011;7383;52.354;9.756;2024-01-27T02:43:02;3.30;;;1.80;;
14592;SDS011;7383;52.354;9.756;2024-01-27T02:45:32;5.32;;;2.20;;
14592;SDS011;7383;52.354;9.756;2024-01-27T02:47:59;6.80;;;2.50;;
14592;SDS011;7383;52.354;9.756;2024-01-27T02:50:28;4.57;;;2.10;;
14592;SDS011;7383;52.354;9.756;2024-01-27T02:52:58;4.28;;;1.92;;
14592;SDS011;7383;52.354;9.756;2024-01-27T02:55:32;6.00;;;2.10;;
14592;SDS011;7383;52.354;9.756;2024-01-27T02:58:13;5.72;;;2.63;;
14592;SDS011;7383;52.354;9.756;2024-01-27T03:00:52;6.38;;;2.30;;
14592;SDS011;7383;52.354;9.756;2024-01-27T03:03:26;3.55;;;2.30;;
14592;SDS011;7383;52.354;9.756;2024-01-27T03:05:55;5.22;;;2.22;;
14592;SDS011;7383;52.354;9.756;2024-01-27T03:08:28;6.00;;;2.53;;
14592;SDS011;7383;52.354;9.756;2024-01-27T03:11:01;8.32;;;2.58;;
14592;SDS011;7383;52.354;9.756;2024-01-27T03:13:45;6.40;;;2.10;;
14592;SDS011;7383;52.354;9.756;2024-01-27T03:16:13;7.15;;;2.35;;
14592;SDS011;7383;52.354;9.756;2024-01-27T03:19:00;6.45;;;2.05;;
14592;SDS011;7383;52.354;9.756;2024-01-27T03:21:45;4.95;;;2.20;;
14592;SDS011;7383;52.354;9.756;2024-01-27T03:24:20;10.27;;;3.33;;
14592;SDS011;7383;52.354;9.756;2024-01-27T03:27:05;6.63;;;2.38;;
14592;SDS011;7383;52.354;9.756;2024-01-27T03:32:36;7.95;;;2.60;;
14592;SDS011;7383;52.354;9.756;2024-01-27T03:35:04;5.60;;;2.28;;
14592;SDS011;7383;52.354;9.756;2024-01-27T03:37:42;7.13;;;2.72;;
14592;SDS011;7383;52.354;9.756;2024-01-27T03:40:14;8.27;;;2.78;;
14592;SDS011;7383;52.354;9.756;2024-01-27T03:42:41;5.10;;;2.17;;
14592;SDS011;7383;52.354;9.756;2024-01-27T03:45:13;5.30;;;2.55;;
14592;SDS011;7383;52.354;9.756;2024-01-27T03:47:40;4.90;;;2.35;;
14592;SDS011;7383;52.354;9.756;2024-01-27T03:50:07;5.65;;;2.53;;
14592;SDS011;7383;52.354;9.756;2024-01-27T03:52:41;4.82;;;2.25;;
14592;SDS011;7383;52.354;9.756;2024-01-27T03:55:15;6.38;;;2.28;;
14592;SDS011;7383;52.354;9.756;2024-01-27T03:57:51;6.55;;;2.25;;
14592;SDS011;7383;52.354;9.756;2024-01-27T04:00:43;6.93;;;2.38;;
14592;SDS011;7383;52.354;9.756;2024-01-27T04:03:26;5.72;;;1.88;;
14592;SDS011;7383;52.354;9.756;2024-01-27T04:05:57;7.72;;;2.83;;
14592;SDS011;7383;52.354;9.756;2024-01-27T04:08:36;4.78;;;2.10;;
14592;SDS011;7383;52.354;9.756;2024-01-27T04:11:04;5.47;;;2.40;;
14592;SDS011;7383;52.354;9.756;2024-01-27T04:13:33;5.53;;;2.53;;
14592;SDS011;7383;52.354;9.756;2024-01-27T04:16:06;8.55;;;2.70;;
14592;SDS011;7383;52.354;9.756;2024-01-27T04:18:38;6.13;;;2.60;;
14592;SDS011;7383;52.354;9.756;2024-01-27T04:21:10;6.82;;;2.50;;
14592;SDS011;7383;52.354;9.756;2024-01-27T04:23:48;5.82;;;1.92;;
14592;SDS011;7383;52.354;9.756;2024-01-27T04:26:15;4.75;;;2.15;;
14592;SDS011;7383;52.354;9.756;2024-01-27T04:28:51;4.60;;;2.33;;
14592;SDS011;7383;52.354;9.756;2024-01-27T04:31:30;5.18;;;1.92;;
14592;SDS011;7383;52.354;9.756;2024-01-27T04:33:57;7.53;;;2.28;;
14592;SDS011;7383;52.354;9.756;2024-01-27T04:36:29;3.50;;;2.08;;
14592;SDS011;7383;52.354;9.756;2024-01-27T04:39:16;7.68;;;2.15;;
14592;SDS011;7383;52.354;9.756;2024-01-27T04:41:48;4.07;;;2.05;;
14592;SDS011;7383;52.354;9.756;2024-01-27T04:44:19;4.63;;;2.25;;
14592;SDS011;7383;52.354;9.756;2024-01-27T04:47:03;5.13;;;2.55;;
14592;SDS011;7383;52.354;9.756;2024-01-27T04:49:32;5.82;;;2.20;;
14592;SDS011;7383;52.354;9.756;2024-01-27T04:51:59;6.35;;;2.00;;
14592;SDS011;7383;52.354;9.756;2024-01-27T04:54:36;6.32;;;2.40;;
14592;SDS011;7383;52.354;9.756;2024-01-27T04:57:05;3.75;;;1.75;;
14592;SDS011;7383;52.354;9.756;2024-01-27T04:59:32;7.68;;;2.75;;
14592;SDS011;7383;52.354;9.756;2024-01-27T05:02:03;4.40;;;2.00;;
14592;SDS011;7383;52.354;9.756;2024-01-27T05:04:30;6.40;;;2.33;;
14592;SDS011;7383;52.354;9.756;2024-01-27T05:07:02;5.57;;;2.58;;
14592;SDS011;7383;52.354;9.756;2024-01-27T05:09:30;6.60;;;2.28;;
14592;SDS011;7383;52.354;9.756;2024-01-27T05:12:00;4.30;;;2.08;;
14592;SDS011;7383;52.354;9.756;2024-01-27T05:14:34;4.50;;;1.65;;
14592;SDS011;7383;52.354;9.756;2024-01-27T05:17:12;3.60;;;1.88;;
14592;SDS011;7383;52.354;9.756;2024-01-27T05:19:41;4.57;;;1.90;;
14592;SDS011;7383;52.354;9.756;2024-01-27T05:22:14;5.00;;;2.20;;
14592;SDS011;7383;52.354;9.756;2024-01-27T05:24:55;2.80;;;1.83;;
14592;SDS011;7383;52.354;9.756;2024-01-27T05:27:25;5.10;;;2.25;;
14592;SDS011;7383;52.354;9.756;2024-01-27T05:29:55;6.22;;;2.22;;
14592;SDS011;7383;52.354;9.756;2024-01-27T05:32:40;4.13;;;2.20;;
14592;SDS011;7383;52.354;9.756;2024-01-27T05:35:21;4.72;;;2.00;;
14592;SDS011;7383;52.354;9.756;2024-01-27T05:37:50;5.45;;;2.20;;
14592;SDS011;7383;52.354;9.756;2024-01-27T05:40:25;5.50;;;2.08;;
14592;SDS011;7383;52.354;9.756;2024-01-27T05:43:36;3.42;;;1.67;;
14592;SDS011;7383;52.354;9.756;2024-01-27T05:45:56;6.65;;;1.67;;
14592;SDS011;7383;52.354;9.756;2024-01-27T05:48:26;4.50;;;1.95;;
14592;SDS011;7383;52.354;9.756;2024-01-27T05:50:54;4.85;;;1.85;;
14592;SDS011;7383;52.354;9.756;2024-01-27T05:53:24;4.60;;;2.00;;
14592;SDS011;7383;52.354;9.756;2024-01-27T05:56:01;4.35;;;2.60;;
14592;SDS011;7383;52.354;9.756;2024-01-27T05:58:36;4.32;;;2.00;;
14592;SDS011;7383;52.354;9.756;2024-01-27T06:01:13;4.63;;;2.13;;
14592;SDS011;7383;52.354;9.756;2024-01-27T06:04:05;4.68;;;1.98;;
14592;SDS011;7383;52.354;9.756;2024-01-27T06:06:40;3.40;;;1.75;;
14592;SDS011;7383;52.354;9.756;2024-01-27T06:09:08;4.30;;;2.40;;
14592;SDS011;7383;52.354;9.756;2024-01-27T06:11:36;5.70;;;2.15;;
14592;SDS011;7383;52.354;9.756;2024-01-27T06:14:15;5.10;;;2.13;;
14592;SDS011;7383;52.354;9.756;2024-01-27T06:16:43;3.33;;;1.77;;
14592;SDS011;7383;52.354;9.756;2024-01-27T06:19:26;4.72;;;2.03;;
14592;SDS011;7383;52.354;9.756;2024-01-27T06:21:53;4.68;;;1.90;;
14592;SDS011;7383;52.354;9.756;2024-01-27T06:24:24;4.57;;;2.40;;
14592;SDS011;7383;52.354;9.756;2024-01-27T06:26:57;3.08;;;1.75;;
14592;SDS011;7383;52.354;9.756;2024-01-27T06:29:34;4.30;;;2.10;;
14592;SDS011;7383;52.354;9.756;2024-01-27T06:32:02;3.63;;;1.92;;
14592;SDS011;7383;52.354;9.756;2024-01-27T06:34:54;3.55;;;1.88;;
14592;SDS011;7383;52.354;9.756;2024-01-27T06:37:22;5.88;;;2.33;;
14592;SDS011;7383;52.354;9.756;2024-01-27T06:40:00;4.68;;;1.83;;
14592;SDS011;7383;52.354;9.756;2024-01-27T06:45:56;3.03;;;1.63;;
14592;SDS011;7383;52.354;9.756;2024-01-27T06:48:23;4.82;;;2.10;;
14592;SDS011;7383;52.354;9.756;2024-01-27T06:50:52;3.10;;;1.85;;
14592;SDS011;7383;52.354;9.756;2024-01-27T06:53:20;2.70;;;1.63;;
14592;SDS011;7383;52.354;9.756;2024-01-27T06:55:53;4.30;;;2.22;;
14592;SDS011;7383;52.354;9.756;2024-01-27T06:58:27;3.30;;;2.10;;
14592;SDS011;7383;52.354;9.756;2024-01-27T07:00:59;4.60;;;1.95;;
14592;SDS011;7383;52.354;9.756;2024-01-27T07:03:30;5.65;;;1.67;;
14592;SDS011;7383;52.354;9.756;2024-01-27T07:06:01;3.42;;;1.95;;
14592;SDS011;7383;52.354;9.756;2024-01-27T07:08:28;3.72;;;1.60;;
14592;SDS011;7383;52.354;9.756;2024-01-27T07:10:57;2.90;;;1.67;;
14592;SDS011;7383;52.354;9.756;2024-01-27T07:13:24;5.75;;;2.20;;
14592;SDS011;7383;52.354;9.756;2024-01-27T07:15:53;4.70;;;2.03;;
14592;SDS011;7383;52.354;9.756;2024-01-27T07:18:30;3.53;;;1.63;;
14592;SDS011;7383;52.354;9.756;2024-01-27T07:21:01;6.63;;;2.20;;
14592;SDS011;7383;52.354;9.756;2024-01-27T07:23:37;7.35;;;2.28;;
14592;SDS011;7383;52.354;9.756;2024-01-27T07:26:10;3.47;;;1.70;;
14592;SDS011;7383;52.354;9.756;2024-01-27T07:28:39;5.57;;;1.88;;
14592;SDS011;7383;52.354;9.756;2024-01-27T07:31:26;3.75;;;1.70;;
14592;SDS011;7383;52.354;9.756;2024-01-27T07:33:53;4.10;;;1.92;;
14592;SDS011;7383;52.354;9.756;2024-01-27T07:36:21;5.60;;;2.20;;
14592;SDS011;7383;52.354;9.756;2024-01-27T07:38:47;4.38;;;2.00;;
14592;SDS011;7383;52.354;9.756;2024-01-27T07:41:14;4.20;;;2.40;;
14592;SDS011;7383;52.354;9.756;2024-01-27T07:43:40;3.28;;;1.70;;
14592;SDS011;7383;52.354;9.756;2024-01-27T07:46:07;4.57;;;2.10;;
14592;SDS011;7383;52.354;9.756;2024-01-27T07:48:34;4.45;;;2.28;;
14592;SDS011;7383;52.354;9.756;2024-01-27T07:51:00;5.32;;;2.33;;
14592;SDS011;7383;52.354;9.756;2024-01-27T07:53:30;9.77;;;2.40;;
14592;SDS011;7383;52.354;9.756;2024-01-27T07:55:57;3.60;;;2.45;;
14592;SDS011;7383;52.354;9.756;2024-01-27T07:58:26;5.50;;;2.20;;
14592;SDS011;7383;52.354;9.756;2024-01-27T08:00:53;3.72;;;2.35;;
14592;SDS011;7383;52.354;9.756;2024-01-27T08:03:19;3.88;;;2.13;;
14592;SDS011;7383;52.354;9.756;2024-01-27T08:05:51;5.05;;;2.30;;
14592;SDS011;7383;52.354;9.756;2024-01-27T08:08:18;5.57;;;2.45;;
14592;SDS011;7383;52.354;9.756;2024-01-27T08:10:46;5.82;;;2.42;;
14592;SDS011;7383;52.354;9.756;2024-01-27T08:13:13;5.72;;;2.72;;
14592;SDS011;7383;52.354;9.756;2024-01-27T08:15:40;3.97;;;2.35;;
14592;SDS011;7383;52.354;9.756;2024-01-27T08:18:06;4.40;;;2.50;;
14592;SDS011;7383;52.354;9.756;2024-01-27T08:20:34;5.75;;;2.65;;
14592;SDS011;7383;52.354;9.756;2024-01-27T08:23:00;3.95;;;2.28;;
14592;SDS011;7383;52.354;9.756;2024-01-27T08:25:27;6.35;;;2.63;;
14592;SDS011;7383;52.354;9.756;2024-01-27T08:27:55;4.88;;;2.15;;
14592;SDS011;7383;52.354;9.756;2024-01-27T08:30:22;5.30;;;2.55;;
14592;SDS011;7383;52.354;9.756;2024-01-27T08:32:49;4.28;;;2.15;;
14592;SDS011;7383;52.354;9.756;2024-01-27T08:35:18;3.83;;;2.20;;
14592;SDS011;7383;52.354;9.756;2024-01-27T08:37:46;5.03;;;2.75;;
14592;SDS011;7383;52.354;9.756;2024-01-27T08:40:14;6.60;;;2.95;;
14592;SDS011;7383;52.354;9.756;2024-01-27T08:42:44;5.82;;;2.40;;
14592;SDS011;7383;52.354;9.756;2024-01-27T08:45:12;4.80;;;2.55;;
14592;SDS011;7383;52.354;9.756;2024-01-27T08:47:39;6.25;;;2.95;;
14592;SDS011;7383;52.354;9.756;2024-01-27T08:50:06;5.28;;;3.00;;
14592;SDS011;7383;52.354;9.756;2024-01-27T08:52:35;4.18;;;2.45;;
14592;SDS011;7383;52.354;9.756;2024-01-27T08:55:02;4.00;;;2.80;;
14592;SDS011;7383;52.354;9.756;2024-01-27T08:57:29;4.75;;;2.40;;
14592;SDS011;7383;52.354;9.756;2024-01-27T08:59:57;6.10;;;2.97;;
14592;SDS011;7383;52.354;9.756;2024-01-27T09:02:25;7.00;;;3.15;;
14592;SDS011;7383;52.354;9.756;2024-01-27T09:04:52;6.93;;;3.00;;
14592;SDS011;7383;52.354;9.756;2024-01-27T09:07:19;4.13;;;2.70;;
14592;SDS011;7383;52.354;9.756;2024-01-27T09:09:48;6.05;;;3.22;;
14592;SDS011;7383;52.354;9.756;2024-01-27T09:12:15;7.65;;;3.55;;
14592;SDS011;7383;52.354;9.756;2024-01-27T09:14:42;6.07;;;3.20;;
14592;SDS011;7383;52.354;9.756;2024-01-27T09:17:15;5.57;;;3.13;;
14592;SDS011;7383;52.354;9.756;2024-01-27T09:19:43;6.38;;;3.20;;
14592;SDS011;7383;52.354;9.756;2024-01-27T09:22:11;5.82;;;3.25;;
14592;SDS011;7383;52.354;9.756;2024-01-27T09:24:38;4.45;;;3.15;;
14592;SDS011;7383;52.354;9.756;2024-01-27T09:27:07;5.32;;;3.20;;
14592;SDS011;7383;52.354;9.756;2024-01-27T09:29:33;6.32;;;3.17;;
14592;SDS011;7383;52.354;9.756;2024-01-27T09:32:02;6.85;;;3.13;;
14592;SDS011;7383;52.354;9.756;2024-01-27T09:34:29;5.15;;;2.92;;
14592;SDS011;7383;52.354;9.756;2024-01-27T09:37:01;5.30;;;3.10;;
14592;SDS011;7383;52.354;9.756;2024-01-27T09:39:29;5.30;;;3.10;;
14592;SDS011;7383;52.354;9.756;2024-01-27T09:41:56;6.78;;;3.33;;
14592;SDS011;7383;52.354;9.756;2024-01-27T09:44:39;7.13;;;3.70;;
14592;SDS011;7383;52.354;9.756;2024-01-27T09:47:09;6.28;;;3.60;;
14592;SDS011;7383;52.354;9.756;2024-01-27T09:49:37;7.93;;;3.38;;
14592;SDS011;7383;52.354;9.756;2024-01-27T09:54:44;6.60;;;3.42;;
14592;SDS011;7383;52.354;9.756;2024-01-27T09:57:12;6.35;;;3.70;;
14592;SDS011;7383;52.354;9.756;2024-01-27T09:59:39;6.28;;;3.38;;
14592;SDS011;7383;52.354;9.756;2024-01-27T10:02:11;3.67;;;3.28;;
14592;SDS011;7383;52.354;9.756;2024-01-27T10:04:55;4.68;;;3.00;;
14592;SDS011;7383;52.354;9.756;2024-01-27T10:07:29;7.65;;;3.47;;
14592;SDS011;7383;52.354;9.756;2024-01-27T10:10:14;5.63;;;3.13;;
14592;SDS011;7383;52.354;9.756;2024-01-27T10:12:41;2.95;;;2.55;;
14592;SDS011;7383;52.354;9.756;2024-01-27T10:15:19;5.22;;;3.15;;
14592;SDS011;7383;52.354;9.756;2024-01-27T10:18:19;4.30;;;3.17;;
14592;SDS011;7383;52.354;9.756;2024-01-27T10:20:38;5.68;;;3.05;;
14592;SDS011;7383;52.354;9.756;2024-01-27T10:23:38;6.35;;;2.72;;
14592;SDS011;7383;52.354;9.756;2024-01-27T10:26:10;4.82;;;3.20;;
14592;SDS011;7383;52.354;9.756;2024-01-27T10:28:40;7.07;;;3.90;;
14592;SDS011;7383;52.354;9.756;2024-01-27T10:31:45;3.50;;;3.20;;
14592;SDS011;7383;52.354;9.756;2024-01-27T10:34:19;6.18;;;3.53;;
14592;SDS011;7383;52.354;9.756;2024-01-27T10:37:15;8.07;;;3.40;;
14592;SDS011;7383;52.354;9.756;2024-01-27T10:39:43;5.25;;;3.40;;
14592;SDS011;7383;52.354;9.756;2024-01-27T10:42:21;6.53;;;3.40;;
14592;SDS011;7383;52.354;9.756;2024-01-27T10:44:55;4.43;;;3.35;;
14592;SDS011;7383;52.354;9.756;2024-01-27T10:47:34;4.50;;;2.88;;
14592;SDS011;7383;52.354;9.756;2024-01-27T10:50:16;7.47;;;3.28;;
14592;SDS011;7383;52.354;9.756;2024-01-27T10:52:50;5.95;;;3.08;;
14592;SDS011;7383;52.354;9.756;2024-01-27T10:55:27;5.90;;;3.22;;
14592;SDS011;7383;52.354;9.756;2024-01-27T10:58:07;5.13;;;3.13;;
14592;SDS011;7383;52.354;9.756;2024-01-27T11:00:39;5.85;;;3.33;;
14592;SDS011;7383;52.354;9.756;2024-01-27T11:03:12;4.85;;;3.30;;
14592;SDS011;7383;52.354;9.756;2024-01-27T11:05:40;5.88;;;2.88;;
14592;SDS011;7383;52.354;9.756;2024-01-27T11:08:09;8.10;;;3.08;;
14592;SDS011;7383;52.354;9.756;2024-01-27T11:10:54;6.22;;;3.10;;
14592;SDS011;7383;52.354;9.756;2024-01-27T11:13:24;4.95;;;3.20;;
14592;SDS011;7383;52.354;9.756;2024-01-27T11:15:58;5.22;;;3.00;;
14592;SDS011;7383;52.354;9.756;2024-01-27T11:18:27;8.23;;;3.20;;
14592;SDS011;7383;52.354;9.756;2024-01-27T11:20:58;6.32;;;3.05;;
14592;SDS011;7383;52.354;9.756;2024-01-27T11:23:32;4.57;;;2.78;;
14592;SDS011;7383;52.354;9.756;2024-01-27T11:26:04;6.13;;;2.92;;
14592;SDS011;7383;52.354;9.756;2024-01-27T11:31:18;4.93;;;2.75;;
14592;SDS011;7383;52.354;9.756;2024-01-27T11:33:46;7.30;;;3.50;;
14592;SDS011;7383;52.354;9.756;2024-01-27T11:36:19;5.03;;;3.10;;
14592;SDS011;7383;52.354;9.756;2024-01-27T11:38:48;5.57;;;2.75;;
14592;SDS011;7383;52.354;9.756;2024-01-27T11:41:39;4.25;;;2.90;;
14592;SDS011;7383;52.354;9.756;2024-01-27T11:44:22;4.53;;;2.67;;
14592;SDS011;7383;52.354;9.756;2024-01-27T11:46:53;6.85;;;3.35;;
14592;SDS011;7383;52.354;9.756;2024-01-27T11:49:42;4.05;;;2.80;;
14592;SDS011;7383;52.354;9.756;2024-01-27T11:52:22;3.60;;;2.72;;
14592;SDS011;7383;52.354;9.756;2024-01-27T11:54:56;4.72;;;2.95;;
14592;SDS011;7383;52.354;9.756;2024-01-27T11:57:26;4.90;;;3.03;;
14592;SDS011;7383;52.354;9.756;2024-01-27T12:00:05;6.65;;;2.95;;
14592;SDS011;7383;52.354;9.756;2024-01-27T12:02:35;5.10;;;2.92;;
14592;SDS011;7383;52.354;9.756;2024-01-27T12:05:07;4.95;;;2.80;;
14592;SDS011;7383;52.354;9.756;2024-01-27T12:07:34;4.65;;;2.90;;
14592;SDS011;7383;52.354;9.756;2024-01-27T12:10:04;5.05;;;2.70;;
14592;SDS011;7383;52.354;9.756;2024-01-27T12:15:35;5.05;;;2.88;;
14592;SDS011;7383;52.354;9.756;2024-01-27T12:18:05;4.22;;;2.78;;
14592;SDS011;7383;52.354;9.756;2024-01-27T12:20:34;3.47;;;2.15;;
14592;SDS011;7383;52.354;9.756;2024-01-27T12:23:05;4.57;;;2.75;;
14592;SDS011;7383;52.354;9.756;2024-01-27T12:25:33;3.47;;;2.20;;
14592;SDS011;7383;52.354;9.756;2024-01-27T12:28:01;6.15;;;2.70;;
14592;SDS011;7383;52.354;9.756;2024-01-27T12:30:39;2.88;;;2.33;;
14592;SDS011;7383;52.354;9.756;2024-01-27T12:33:09;5.93;;;2.63;;
14592;SDS011;7383;52.354;9.756;2024-01-27T12:35:41;2.78;;;2.03;;
14592;SDS011;7383;52.354;9.756;2024-01-27T12:38:16;5.30;;;2.70;;
14592;SDS011;7383;52.354;9.756;2024-01-27T12:40:44;3.38;;;2.20;;
14592;SDS011;7383;52.354;9.756;2024-01-27T12:43:10;2.67;;;2.20;;
14592;SDS011;7383;52.354;9.756;2024-01-27T12:45:43;5.00;;;2.35;;
14592;SDS011;7383;52.354;9.756;2024-01-27T12:48:13;4.80;;;2.22;;
14592;SDS011;7383;52.354;9.756;2024-01-27T12:50:55;4.18;;;2.10;;
14592;SDS011;7383;52.354;9.756;2024-01-27T12:53:37;3.28;;;2.38;;
14592;SDS011;7383;52.354;9.756;2024-01-27T12:56:07;3.30;;;2.42;;
14592;SDS011;7383;52.354;9.756;2024-01-27T12:58:34;2.90;;;1.95;;
14592;SDS011;7383;52.354;9.756;2024-01-27T13:01:15;5.13;;;2.72;;
14592;SDS011;7383;52.354;9.756;2024-01-27T13:03:49;4.43;;;2.60;;
14592;SDS011;7383;52.354;9.756;2024-01-27T13:06:22;5.25;;;2.85;;
14592;SDS011;7383;52.354;9.756;2024-01-27T13:08:49;4.25;;;2.55;;
14592;SDS011;7383;52.354;9.756;2024-01-27T13:11:17;5.18;;;2.67;;
14592;SDS011;7383;52.354;9.756;2024-01-27T13:13:49;4.47;;;2.38;;
14592;SDS011;7383;52.354;9.756;2024-01-27T13:16:22;4.40;;;2.85;;
14592;SDS011;7383;52.354;9.756;2024-01-27T13:19:03;3.47;;;2.53;;
14592;SDS011;7383;52.354;9.756;2024-01-27T13:21:34;5.63;;;2.42;;
14592;SDS011;7383;52.354;9.756;2024-01-27T13:24:04;4.55;;;2.42;;
14592;SDS011;7383;52.354;9.756;2024-01-27T13:26:36;3.17;;;2.60;;
14592;SDS011;7383;52.354;9.756;2024-01-27T13:29:04;3.65;;;2.10;;
14592;SDS011;7383;52.354;9.756;2024-01-27T13:31:42;3.50;;;2.28;;
14592;SDS011;7383;52.354;9.756;2024-01-27T13:34:15;4.32;;;2.83;;
14592;SDS011;7383;52.354;9.756;2024-01-27T13:36:56;5.72;;;2.47;;
14592;SDS011;7383;52.354;9.756;2024-01-27T13:39:27;2.75;;;2.10;;
14592;SDS011;7383;52.354;9.756;2024-01-27T13:41:56;2.85;;;2.22;;
14592;SDS011;7383;52.354;9.756;2024-01-27T13:44:26;5.43;;;2.40;;
14592;SDS011;7383;52.354;9.756;2024-01-27T13:50:03;4.55;;;2.20;;
14592;SDS011;7383;52.354;9.756;2024-01-27T13:52:34;4.40;;;2.47;;
14592;SDS011;7383;52.354;9.756;2024-01-27T13:55:10;5.50;;;2.35;;
14592;SDS011;7383;52.354;9.756;2024-01-27T13:57:38;3.70;;;2.15;;
14592;SDS011;7383;52.354;9.756;2024-01-27T14:00:09;3.65;;;2.30;;
14592;SDS011;7383;52.354;9.756;2024-01-27T14:02:40;5.10;;;2.50;;
14592;SDS011;7383;52.354;9.756;2024-01-27T14:05:12;4.15;;;2.20;;
14592;SDS011;7383;52.354;9.756;2024-01-27T14:08:04;4.93;;;2.30;;
14592;SDS011;7383;52.354;9.756;2024-01-27T14:10:35;4.32;;;2.33;;
14592;SDS011;7383;52.354;9.756;2024-01-27T14:13:05;2.60;;;2.15;;
14592;SDS011;7383;52.354;9.756;2024-01-27T14:15:34;3.85;;;2.47;;
14592;SDS011;7383;52.354;9.756;2024-01-27T14:18:42;3.58;;;2.25;;
14592;SDS011;7383;52.354;9.756;2024-01-27T14:21:11;3.22;;;2.08;;
14592;SDS011;7383;52.354;9.756;2024-01-27T14:23:41;4.20;;;2.40;;
14592;SDS011;7383;52.354;9.756;2024-01-27T14:26:17;3.60;;;2.40;;
14592;SDS011;7383;52.354;9.756;2024-01-27T14:28:52;5.00;;;2.47;;
14592;SDS011;7383;52.354;9.756;2024-01-27T14:31:26;6.40;;;2.70;;
14592;SDS011;7383;52.354;9.756;2024-01-27T14:33:55;3.67;;;2.25;;
14592;SDS011;7383;52.354;9.756;2024-01-27T14:39:34;4.78;;;2.40;;
14592;SDS011;7383;52.354;9.756;2024-01-27T14:42:09;4.18;;;2.50;;
14592;SDS011;7383;52.354;9.756;2024-01-27T14:44:59;5.05;;;2.20;;
14592;SDS011;7383;52.354;9.756;2024-01-27T14:47:31;4.43;;;2.60;;
14592;SDS011;7383;52.354;9.756;2024-01-27T14:49:58;3.92;;;2.28;;
14592;SDS011;7383;52.354;9.756;2024-01-27T14:52:32;3.40;;;2.13;;
14592;SDS011;7383;52.354;9.756;2024-01-27T14:55:19;6.28;;;3.00;;
14592;SDS011;7383;52.354;9.756;2024-01-27T14:58:01;3.95;;;2.10;;
14592;SDS011;7383;52.354;9.756;2024-01-27T15:00:42;4.25;;;2.08;;
14592;SDS011;7383;52.354;9.756;2024-01-27T15:03:10;4.22;;;2.53;;
14592;SDS011;7383;52.354;9.756;2024-01-27T15:05:47;3.70;;;2.10;;
14592;SDS011;7383;52.354;9.756;2024-01-27T15:08:21;4.22;;;2.40;;
14592;SDS011;7383;52.354;9.756;2024-01-27T15:10:55;4.63;;;2.22;;
14592;SDS011;7383;52.354;9.756;2024-01-27T15:13:31;3.72;;;2.22;;
14592;SDS011;7383;52.354;9.756;2024-01-27T15:16:01;3.25;;;2.22;;
14592;SDS011;7383;52.354;9.756;2024-01-27T15:18:39;3.95;;;2.25;;
14592;SDS011;7383;52.354;9.756;2024-01-27T15:21:09;3.05;;;2.10;;
14592;SDS011;7383;52.354;9.756;2024-01-27T15:26:27;3.28;;;2.00;;
14592;SDS011;7383;52.354;9.756;2024-01-27T15:35:55;4.75;;;2.10;;
14592;SDS011;7383;52.354;9.756;2024-01-27T15:38:28;5.13;;;2.30;;
14592;SDS011;7383;52.354;9.756;2024-01-27T15:40:58;5.05;;;2.42;;
14592;SDS011;7383;52.354;9.756;2024-01-27T15:43:31;2.67;;;1.75;;
14592;SDS011;7383;52.354;9.756;2024-01-27T15:46:00;5.47;;;1.88;;
14592;SDS011;7383;52.354;9.756;2024-01-27T15:51:23;3.17;;;1.58;;
14592;SDS011;7383;52.354;9.756;2024-01-27T15:53:53;3.35;;;2.03;;
14592;SDS011;7383;52.354;9.756;2024-01-27T15:56:25;6.78;;;2.08;;
14592;SDS011;7383;52.354;9.756;2024-01-27T15:58:51;4.25;;;2.22;;
14592;SDS011;7383;52.354;9.756;2024-01-27T16:01:18;4.97;;;2.25;;
14592;SDS011;7383;52.354;9.756;2024-01-27T16:03:46;5.05;;;2.80;;
14592;SDS011;7383;52.354;9.756;2024-01-27T16:06:13;3.38;;;2.30;;
14592;SDS011;7383;52.354;9.756;2024-01-27T16:08:51;3.88;;;2.25;;
14592;SDS011;7383;52.354;9.756;2024-01-27T16:11:18;3.72;;;2.10;;
14592;SDS011;7383;52.354;9.756;2024-01-27T16:13:46;3.45;;;1.98;;
14592;SDS011;7383;52.354;9.756;2024-01-27T16:16:18;2.55;;;1.85;;
14592;SDS011;7383;52.354;9.756;2024-01-27T16:18:49;3.15;;;1.92;;
14592;SDS011;7383;52.354;9.756;2024-01-27T16:21:22;3.20;;;1.70;;
14592;SDS011;7383;52.354;9.756;2024-01-27T16:23:49;3.88;;;2.30;;
14592;SDS011;7383;52.354;9.756;2024-01-27T16:26:31;5.00;;;2.13;;
14592;SDS011;7383;52.354;9.756;2024-01-27T16:28:59;4.32;;;2.22;;
14592;SDS011;7383;52.354;9.756;2024-01-27T16:31:26;4.72;;;2.63;;
14592;SDS011;7383;52.354;9.756;2024-01-27T16:33:52;6.85;;;3.83;;
14592;SDS011;7383;52.354;9.756;2024-01-27T16:36:19;6.97;;;4.93;;
14592;SDS011;7383;52.354;9.756;2024-01-27T16:38:45;6.63;;;3.83;;
14592;SDS011;7383;52.354;9.756;2024-01-27T16:41:12;5.15;;;3.15;;
14592;SDS011;7383;52.354;9.756;2024-01-27T16:43:40;4.90;;;2.78;;
14592;SDS011;7383;52.354;9.756;2024-01-27T16:46:08;4.45;;;2.65;;
14592;SDS011;7383;52.354;9.756;2024-01-27T16:48:35;3.38;;;2.33;;
14592;SDS011;7383;52.354;9.756;2024-01-27T16:51:01;5.38;;;2.70;;
14592;SDS011;7383;52.354;9.756;2024-01-27T16:53:28;4.40;;;2.78;;
14592;SDS011;7383;52.354;9.756;2024-01-27T16:55:57;3.83;;;2.40;;
14592;SDS011;7383;52.354;9.756;2024-01-27T16:58:24;2.55;;;2.35;;
14592;SDS011;7383;52.354;9.756;2024-01-27T17:00:51;3.85;;;2.20;;
14592;SDS011;7383;52.354;9.756;2024-01-27T17:03:19;4.10;;;2.85;;
14592;SDS011;7383;52.354;9.756;2024-01-27T17:05:46;6.03;;;2.92;;
14592;SDS011;7383;52.354;9.756;2024-01-27T17:08:15;4.47;;;2.60;;
14592;SDS011;7383;52.354;9.756;2024-01-27T17:10:57;2.95;;;2.28;;
14592;SDS011;7383;52.354;9.756;2024-01-27T17:13:26;3.97;;;2.60;;
14592;SDS011;7383;52.354;9.756;2024-01-27T17:15:54;3.08;;;2.50;;
14592;SDS011;7383;52.354;9.756;2024-01-27T17:18:22;3.22;;;2.40;;
14592;SDS011;7383;52.354;9.756;2024-01-27T17:20:49;6.00;;;2.92;;
14592;SDS011;7383;52.354;9.756;2024-01-27T17:23:16;4.40;;;2.50;;
14592;SDS011;7383;52.354;9.756;2024-01-27T17:25:45;3.95;;;2.63;;
14592;SDS011;7383;52.354;9.756;2024-01-27T17:28:13;5.10;;;2.55;;
14592;SDS011;7383;52.354;9.756;2024-01-27T17:30:54;3.97;;;2.47;;
14592;SDS011;7383;52.354;9.756;2024-01-27T17:33:22;5.72;;;2.90;;
14592;SDS011;7383;52.354;9.756;2024-01-27T17:35:50;4.30;;;2.95;;
14592;SDS011;7383;52.354;9.756;2024-01-27T17:38:19;3.65;;;2.70;;
14592;SDS011;7383;52.354;9.756;2024-01-27T17:40:45;3.67;;;2.95;;
14592;SDS011;7383;52.354;9.756;2024-01-27T17:43:11;3.40;;;2.28;;
14592;SDS011;7383;52.354;9.756;2024-01-27T17:45:40;4.40;;;2.65;;
14592;SDS011;7383;52.354;9.756;2024-01-27T17:48:07;4.93;;;2.50;;
14592;SDS011;7383;52.354;9.756;2024-01-27T17:50:35;4.88;;;2.65;;
14592;SDS011;7383;52.354;9.756;2024-01-27T17:53:03;4.35;;;2.60;;
14592;SDS011;7383;52.354;9.756;2024-01-27T17:55:38;3.20;;;2.30;;
14592;SDS011;7383;52.354;9.756;2024-01-27T17:58:05;3.05;;;2.33;;
14592;SDS011;7383;52.354;9.756;2024-01-27T18:00:34;4.72;;;2.67;;
14592;SDS011;7383;52.354;9.756;2024-01-27T18:03:01;5.00;;;2.78;;
14592;SDS011;7383;52.354;9.756;2024-01-27T18:05:28;6.32;;;3.85;;